createdAt,value
2022-11-08T00:01:41.357Z,97795.53
2022-11-08T00:04:08.062Z,97789.44
2022-11-08T00:06:34.890Z,97795.81
2022-11-08T00:09:01.553Z,97788.94
2022-11-08T00:11:28.346Z,97784.69
2022-11-08T00:13:55.197Z,97791.25
2022-11-08T00:16:21.864Z,97783.56
2022-11-08T00:18:48.548Z,97783.72
2022-11-08T00:21:15.200Z,97784.84
2022-11-08T00:23:41.959Z,97784.69
2022-11-08T00:26:08.733Z,97791.91
2022-11-08T00:28:35.379Z,97794.03
2022-11-08T00:31:02.239Z,97801.44
2022-11-08T00:33:28.889Z,97795.81
2022-11-08T00:35:55.753Z,97797.63
2022-11-08T00:38:22.574Z,97790.91
2022-11-08T00:40:49.335Z,97794.81
2022-11-08T00:43:16.082Z,97786.81
2022-11-08T00:45:42.976Z,97790.59
2022-11-08T00:48:09.668Z,97783.06
2022-11-08T00:50:36.339Z,97786.19
2022-11-08T00:53:03.048Z,97789.59
2022-11-08T00:55:30.141Z,97794.34
2022-11-08T00:58:00.713Z,97793.69
2022-11-08T01:00:27.595Z,97789.91
2022-11-08T01:02:54.319Z,97794.16
2022-11-08T01:05:21.288Z,97788.94
2022-11-08T01:07:48.025Z,97784.53
2022-11-08T01:10:14.729Z,97785.78
2022-11-08T01:12:41.404Z,97781.72
2022-11-08T01:15:08.452Z,97778.31
2022-11-08T01:17:35.492Z,97785.97
2022-11-08T01:20:02.209Z,97777.16
2022-11-08T01:22:29.014Z,97777.31
2022-11-08T01:24:56.027Z,97780.88
2022-11-08T01:27:22.645Z,97772.22
2022-11-08T01:29:49.503Z,97766.34
2022-11-08T01:32:16.213Z,97762.25
2022-11-08T01:34:43.327Z,97758.66
2022-11-08T01:37:10.034Z,97760.78
2022-11-08T01:39:36.712Z,97765.03
2022-11-08T01:42:03.475Z,97766.34
2022-11-08T01:44:30.250Z,97763.56
2022-11-08T01:46:56.859Z,97757.50
2022-11-08T01:49:23.549Z,97758.97
2022-11-08T01:51:50.695Z,97747.34
2022-11-08T01:54:17.497Z,97749.94
2022-11-08T01:56:44.138Z,97744.06
2022-11-08T01:59:10.974Z,97747.66
2022-11-08T02:01:37.792Z,97742.75
2022-11-08T02:04:04.743Z,97749.13
2022-11-08T02:06:31.529Z,97746.19
2022-11-08T02:08:58.209Z,97740.16
2022-11-08T02:11:24.926Z,97731.63
2022-11-08T02:13:51.628Z,97727.84
2022-11-08T02:16:18.327Z,97728.50
2022-11-08T02:18:45.185Z,97714.59
2022-11-08T02:21:11.914Z,97712.97
2022-11-08T02:23:38.811Z,97720.81
2022-11-08T02:26:05.606Z,97713.28
2022-11-08T02:28:32.318Z,97719.03
2022-11-08T02:30:59.202Z,97723.94
2022-11-08T02:33:25.981Z,97714.78
2022-11-08T02:35:52.684Z,97717.84
2022-11-08T02:38:20.447Z,97712.63
2022-11-08T02:40:48.204Z,97717.03
2022-11-08T02:43:15.731Z,97707.22
2022-11-08T02:45:42.528Z,97707.19
2022-11-08T02:48:09.244Z,97709.38
2022-11-08T02:50:35.906Z,97709.03
2022-11-08T02:53:02.755Z,97706.25
2022-11-08T02:55:29.425Z,97711.00
2022-11-08T02:57:56.196Z,97705.28
2022-11-08T03:00:22.971Z,97696.75
2022-11-08T03:02:49.881Z,97704.94
2022-11-08T03:05:16.627Z,97704.44
2022-11-08T03:07:43.299Z,97705.72
2022-11-08T03:10:10.398Z,97705.91
2022-11-08T03:12:37.162Z,97700.19
2022-11-08T03:15:03.878Z,97703.78
2022-11-08T03:17:30.613Z,97705.72
2022-11-08T03:19:57.394Z,97700.81
2022-11-08T03:22:24.706Z,97703.44
2022-11-08T03:24:51.320Z,97701.97
2022-11-08T03:27:18.008Z,97703.13
2022-11-08T03:29:44.847Z,97697.66
2022-11-08T03:32:11.733Z,97695.38
2022-11-08T03:34:38.614Z,97703.44
2022-11-08T03:37:05.275Z,97700.81
2022-11-08T03:39:32.010Z,97698.72
2022-11-08T03:41:58.674Z,97696.91
2022-11-08T03:44:25.333Z,97703.78
2022-11-08T03:46:52.167Z,97693.59
2022-11-08T03:49:18.909Z,97690.16
2022-11-08T03:51:45.651Z,97693.13
2022-11-08T03:54:12.618Z,97694.88
2022-11-08T03:56:39.376Z,97699.03
2022-11-08T03:59:06.081Z,97697.03
2022-11-08T04:01:32.911Z,97696.22
2022-11-08T04:03:59.685Z,97694.00
2022-11-08T04:06:26.348Z,97700.09
2022-11-08T04:08:53.089Z,97694.00
2022-11-08T04:11:20.244Z,97691.72
2022-11-08T04:13:47.129Z,97692.38
2022-11-08T04:16:17.742Z,97693.69
2022-11-08T04:18:44.754Z,97689.09
2022-11-08T04:21:11.404Z,97689.63
2022-11-08T04:23:38.136Z,97692.50
2022-11-08T04:26:04.806Z,97692.69
2022-11-08T04:28:31.617Z,97694.13
2022-11-08T04:30:58.574Z,97680.81
2022-11-08T04:33:25.441Z,97686.81
2022-11-08T04:35:52.244Z,97683.84
2022-11-08T04:38:19.432Z,97688.22
2022-11-08T04:40:46.625Z,97692.50
2022-11-08T04:43:13.334Z,97682.28
2022-11-08T04:45:40.039Z,97686.75
2022-11-08T04:48:06.679Z,97682.38
2022-11-08T04:50:33.562Z,97688.59
2022-11-08T04:53:00.197Z,97685.59
2022-11-08T04:55:26.990Z,97686.28
2022-11-08T04:57:53.691Z,97680.28
2022-11-08T05:00:20.525Z,97677.50
2022-11-08T05:02:47.502Z,97678.00
2022-11-08T05:05:14.484Z,97674.50
2022-11-08T05:07:41.195Z,97676.72
2022-11-08T05:10:08.106Z,97671.53
2022-11-08T05:12:34.851Z,97675.94
2022-11-08T05:15:01.576Z,97670.94
2022-11-08T05:17:28.602Z,97667.22
2022-11-08T05:19:55.423Z,97667.25
2022-11-08T05:22:22.180Z,97673.75
2022-11-08T05:24:48.908Z,97673.53
2022-11-08T05:27:15.648Z,97671.41
2022-11-08T05:29:42.512Z,97674.81
2022-11-08T05:32:09.306Z,97672.16
2022-11-08T05:34:36.084Z,97672.06
2022-11-08T05:37:02.729Z,97672.69
2022-11-08T05:39:32.231Z,97678.19
2022-11-08T05:41:59.673Z,97678.38
2022-11-08T05:44:26.818Z,97681.66
2022-11-08T05:46:53.709Z,97683.00
2022-11-08T05:49:20.840Z,97680.41
2022-11-08T05:51:47.673Z,97675.00
2022-11-08T05:54:14.938Z,97683.59
2022-11-08T05:56:42.254Z,97675.00
2022-11-08T05:59:09.393Z,97674.00
2022-11-08T06:01:36.244Z,97672.56
2022-11-08T06:04:03.410Z,97672.81
2022-11-08T06:06:30.604Z,97678.59
2022-11-08T06:08:57.636Z,97680.03
2022-11-08T06:11:24.799Z,97672.94
2022-11-08T06:13:52.264Z,97671.69
2022-11-08T06:16:19.612Z,97672.53
2022-11-08T06:18:46.715Z,97671.59
2022-11-08T06:21:14.143Z,97672.72
2022-11-08T06:23:41.345Z,97665.56
2022-11-08T06:26:08.370Z,97665.44
2022-11-08T06:28:35.353Z,97672.91
2022-11-08T06:31:02.611Z,97670.28
2022-11-08T06:33:30.001Z,97679.28
2022-11-08T06:35:57.517Z,97685.47
2022-11-08T06:38:24.391Z,97681.66
2022-11-08T06:40:51.442Z,97683.41
2022-11-08T06:43:20.163Z,97690.03
2022-11-08T06:45:47.437Z,97683.00
2022-11-08T06:48:14.366Z,97685.84
2022-11-08T06:50:44.079Z,97681.84
2022-11-08T06:53:13.512Z,97686.41
2022-11-08T06:55:41.094Z,97683.16
2022-11-08T06:58:08.483Z,97689.06
2022-11-08T07:00:36.109Z,97685.47
2022-11-08T07:03:06.321Z,97688.41
2022-11-08T07:05:33.617Z,97684.66
2022-11-08T07:08:00.617Z,97685.31
2022-11-08T07:10:27.789Z,97684.13
2022-11-08T07:12:54.729Z,97683.16
2022-11-08T07:15:22.091Z,97679.75
2022-11-08T07:17:49.179Z,97689.84
2022-11-08T07:20:16.290Z,97685.94
2022-11-08T07:22:43.374Z,97683.16
2022-11-08T07:25:10.996Z,97686.88
2022-11-08T07:27:38.353Z,97685.69
2022-11-08T07:30:05.749Z,97681.81
2022-11-08T07:32:33.059Z,97677.59
2022-11-08T07:34:59.972Z,97674.63
2022-11-08T07:37:26.775Z,97669.59
2022-11-08T07:39:53.748Z,97660.84
2022-11-08T07:42:20.406Z,97666.16
2022-11-08T07:44:47.554Z,97666.72
2022-11-08T07:47:14.368Z,97656.38
2022-11-08T07:49:41.374Z,97653.66
2022-11-08T07:52:08.568Z,97653.66
2022-11-08T07:54:35.295Z,97656.03
2022-11-08T07:57:02.479Z,97653.31
2022-11-08T07:59:29.264Z,97653.56
2022-11-08T08:01:56.012Z,97646.66
2022-11-08T08:04:23.022Z,97652.44
2022-11-08T08:06:50.124Z,97651.63
2022-11-08T08:09:16.888Z,97650.41
2022-11-08T08:11:43.561Z,97648.59
2022-11-08T08:14:10.521Z,97641.94
2022-11-08T08:16:37.314Z,97644.41
2022-11-08T08:19:04.471Z,97650.03
2022-11-08T08:21:31.097Z,97646.69
2022-11-08T08:23:58.057Z,97638.91
2022-11-08T08:26:24.921Z,97646.13
2022-11-08T08:28:52.068Z,97642.94
2022-11-08T08:31:18.912Z,97647.16
2022-11-08T08:33:45.761Z,97648.00
2022-11-08T08:36:12.704Z,97633.88
2022-11-08T08:38:44.309Z,97638.84
2022-11-08T08:41:11.781Z,97629.63
2022-11-08T08:43:39.229Z,97635.56
2022-11-08T08:46:06.321Z,97633.63
2022-11-08T08:48:33.195Z,97625.09
2022-11-08T08:51:00.531Z,97629.59
2022-11-08T08:53:27.334Z,97632.22
2022-11-08T08:55:54.407Z,97631.44
2022-11-08T08:58:21.411Z,97642.69
2022-11-08T09:03:35.163Z,97645.69
2022-11-08T09:06:01.945Z,97640.00
2022-11-08T09:08:29.184Z,97634.28
2022-11-08T09:10:55.955Z,97641.78
2022-11-08T09:13:23.629Z,97638.50
2022-11-08T09:15:51.015Z,97638.84
2022-11-08T09:18:18.402Z,97640.31
2022-11-08T09:20:45.202Z,97640.88
2022-11-08T09:23:12.052Z,97638.78
2022-11-08T09:25:39.304Z,97642.00
2022-11-08T09:28:06.413Z,97637.94
2022-11-08T09:30:33.874Z,97634.13
2022-11-08T09:33:02.420Z,97636.13
2022-11-08T09:35:30.030Z,97646.31
2022-11-08T09:37:57.042Z,97631.25
2022-11-08T09:40:24.260Z,97633.63
2022-11-08T09:42:51.039Z,97634.75
2022-11-08T09:45:17.883Z,97632.38
2022-11-08T09:47:47.817Z,97624.19
2022-11-08T09:50:19.108Z,97625.09
2022-11-08T09:52:46.610Z,97629.38
2022-11-08T09:55:13.551Z,97628.97
2022-11-08T09:57:40.316Z,97625.69
2022-11-08T10:00:07.206Z,97620.81
2022-11-08T10:02:34.269Z,97619.19
2022-11-08T10:05:01.240Z,97618.91
2022-11-08T10:07:28.144Z,97615.03
2022-11-08T10:09:55.095Z,97612.13
2022-11-08T10:12:24.745Z,97610.50
2022-11-08T10:14:54.333Z,97602.53
2022-11-08T10:17:21.767Z,97599.72
2022-11-08T10:19:48.629Z,97598.16
2022-11-08T10:22:15.815Z,97586.28
2022-11-08T10:24:43.165Z,97601.22
2022-11-08T10:27:10.170Z,97592.94
2022-11-08T10:29:37.672Z,97591.41
2022-11-08T10:32:04.405Z,97578.97
2022-11-08T10:34:31.387Z,97587.41
2022-11-08T10:36:58.168Z,97586.09
2022-11-08T10:39:25.611Z,97588.88
2022-11-08T10:41:53.040Z,97580.94
2022-11-08T10:44:20.106Z,97590.81
2022-11-08T10:46:46.981Z,97579.94
2022-11-08T10:49:14.222Z,97580.19
2022-11-08T10:51:40.972Z,97574.56
2022-11-08T10:54:08.472Z,97571.34
2022-11-08T10:56:37.748Z,97570.03
2022-11-08T10:59:04.993Z,97567.94
2022-11-08T11:01:32.317Z,97559.13
2022-11-08T11:03:59.491Z,97560.66
2022-11-08T11:06:26.838Z,97559.94
2022-11-08T11:08:53.654Z,97555.38
2022-11-08T11:11:20.564Z,97551.38
2022-11-08T11:13:47.520Z,97548.75
2022-11-08T11:16:14.842Z,97550.06
2022-11-08T11:18:42.142Z,97549.28
2022-11-08T11:21:09.403Z,97545.22
2022-11-08T11:23:37.101Z,97538.94
2022-11-08T11:26:04.195Z,97539.22
2022-11-08T11:28:31.627Z,97537.03
2022-11-08T11:30:58.747Z,97529.50
2022-11-08T11:33:25.530Z,97532.84
2022-11-08T11:35:52.839Z,97531.19
2022-11-08T11:38:20.396Z,97524.34
2022-11-08T11:40:48.064Z,97526.94
2022-11-08T11:43:15.136Z,97520.72
2022-11-08T11:45:42.310Z,97519.13
2022-11-08T11:48:09.061Z,97519.41
2022-11-08T11:50:36.212Z,97521.28
2022-11-08T11:53:03.498Z,97520.00
2022-11-08T11:55:30.678Z,97511.72
2022-11-08T11:57:58.177Z,97510.69
2022-11-08T12:00:25.296Z,97509.16
2022-11-08T12:02:52.108Z,97518.59
2022-11-08T12:05:19.452Z,97515.06
2022-11-08T12:07:46.699Z,97507.69
2022-11-08T12:10:14.149Z,97505.97
2022-11-08T12:12:40.920Z,97508.47
2022-11-08T12:15:07.788Z,97505.44
2022-11-08T12:17:35.142Z,97500.78
2022-11-08T12:20:02.621Z,97497.91
2022-11-08T12:22:30.114Z,97500.94
2022-11-08T12:24:57.617Z,97499.72
2022-11-08T12:27:24.357Z,97493.91
2022-11-08T12:29:51.620Z,97492.88
2022-11-08T12:32:18.610Z,97500.66
2022-11-08T12:34:45.919Z,97494.44
2022-11-08T12:37:13.028Z,97491.81
2022-11-08T12:39:40.408Z,97497.78
2022-11-08T12:42:07.411Z,97496.22
2022-11-08T12:44:34.210Z,97491.84
2022-11-08T12:47:01.619Z,97496.06
2022-11-08T12:49:28.815Z,97492.38
2022-11-08T12:51:56.103Z,97485.38
2022-11-08T12:54:24.254Z,97484.31
2022-11-08T12:56:51.562Z,97479.63
2022-11-08T12:59:18.760Z,97487.78
2022-11-08T13:01:45.709Z,97484.97
2022-11-08T13:04:12.410Z,97487.22
2022-11-08T13:06:39.614Z,97480.44
2022-11-08T13:09:06.556Z,97494.88
2022-11-08T13:11:33.694Z,97477.44
2022-11-08T13:14:00.919Z,97485.69
2022-11-08T13:16:27.799Z,97484.22
2022-11-08T13:18:54.437Z,97484.06
2022-11-08T13:21:21.341Z,97487.53
2022-11-08T13:23:48.389Z,97489.00
2022-11-08T13:26:15.606Z,97489.78
2022-11-08T13:28:42.913Z,97492.56
2022-11-08T13:31:09.583Z,97489.50
2022-11-08T13:33:36.231Z,97481.41
2022-11-08T13:36:03.123Z,97486.75
2022-11-08T13:38:29.781Z,97486.97
2022-11-08T13:40:56.597Z,97490.63
2022-11-08T13:43:23.223Z,97485.25
2022-11-08T13:45:49.879Z,97491.13
2022-11-08T13:48:20.022Z,97485.47
2022-11-08T13:50:48.978Z,97489.81
2022-11-08T13:53:15.617Z,97492.81
2022-11-08T13:55:42.316Z,97489.50
2022-11-08T13:58:08.942Z,97494.19
2022-11-08T14:00:35.551Z,97488.41
2022-11-08T14:03:02.268Z,97502.59
2022-11-08T14:05:28.909Z,97491.78
2022-11-08T14:07:55.592Z,97487.63
2022-11-08T14:10:22.284Z,97482.50
2022-11-08T14:12:48.969Z,97488.56
2022-11-08T14:15:15.597Z,97485.50
2022-11-08T14:17:42.268Z,97485.94
2022-11-08T14:20:08.930Z,97485.06
2022-11-08T14:22:35.595Z,97486.88
2022-11-08T14:25:02.622Z,97484.63
2022-11-08T14:27:29.270Z,97482.72
2022-11-08T14:29:55.899Z,97486.75
2022-11-08T14:32:22.710Z,97490.28
2022-11-08T14:34:49.354Z,97485.19
2022-11-08T14:37:16.005Z,97491.81
2022-11-08T14:39:42.617Z,97490.66
2022-11-08T14:42:09.309Z,97483.50
2022-11-08T14:44:35.989Z,97489.78
2022-11-08T14:47:02.701Z,97484.94
2022-11-08T14:49:29.351Z,97485.41
2022-11-08T14:51:56.085Z,97478.81
2022-11-08T14:54:22.724Z,97488.75
2022-11-08T14:56:49.364Z,97481.09
2022-11-08T14:59:16.101Z,97484.47
2022-11-08T15:01:42.930Z,97483.66
2022-11-08T15:04:09.651Z,97485.47
2022-11-08T15:06:36.854Z,97484.31
2022-11-08T15:09:03.602Z,97481.78
2022-11-08T15:11:30.592Z,97478.66
2022-11-08T15:13:57.220Z,97487.75
2022-11-08T15:16:23.869Z,97480.13
2022-11-08T15:18:50.476Z,97494.78
2022-11-08T15:21:17.104Z,97490.59
2022-11-08T15:23:43.766Z,97489.28
2022-11-08T15:26:12.860Z,97490.84
2022-11-08T15:28:42.634Z,97490.84
2022-11-08T15:31:09.582Z,97488.50
2022-11-08T15:33:36.229Z,97493.56
2022-11-08T15:36:02.988Z,97485.53
2022-11-08T15:38:29.635Z,97483.56
2022-11-08T15:40:56.298Z,97480.16
2022-11-08T15:43:23.005Z,97480.53
2022-11-08T15:45:49.737Z,97483.88
2022-11-08T15:48:16.629Z,97482.25
2022-11-08T15:50:43.448Z,97483.41
2022-11-08T15:53:10.177Z,97479.34
2022-11-08T15:55:36.859Z,97479.97
2022-11-08T15:58:03.553Z,97483.31
2022-11-08T16:00:30.240Z,97484.97
2022-11-08T16:02:56.872Z,97485.41
2022-11-08T16:05:23.566Z,97490.31
2022-11-08T16:07:50.264Z,97496.69
2022-11-08T16:10:16.944Z,97493.66
2022-11-08T16:12:43.587Z,97492.22
2022-11-08T16:15:10.272Z,97499.81
2022-11-08T16:17:36.896Z,97495.97
2022-11-08T16:20:03.541Z,97497.41
2022-11-08T16:22:30.290Z,97489.25
2022-11-08T16:24:57.152Z,97491.31
2022-11-08T16:27:23.828Z,97496.81
2022-11-08T16:29:50.467Z,97498.25
2022-11-08T16:32:17.144Z,97494.59
2022-11-08T16:34:43.849Z,97499.69
2022-11-08T16:37:10.503Z,97493.78
2022-11-08T16:39:37.139Z,97492.56
2022-11-08T16:42:03.819Z,97494.63
2022-11-08T16:44:30.679Z,97500.91
2022-11-08T16:46:57.370Z,97496.44
2022-11-08T16:49:24.060Z,97504.75
2022-11-08T16:51:50.708Z,97514.53
2022-11-08T16:54:17.380Z,97504.50
2022-11-08T16:56:44.088Z,97504.09
2022-11-08T16:59:10.735Z,97504.44
2022-11-08T17:01:37.469Z,97511.41
2022-11-08T17:04:04.169Z,97509.53
2022-11-08T17:06:30.909Z,97505.63
2022-11-08T17:08:57.637Z,97504.59
2022-11-08T17:11:24.391Z,97507.31
2022-11-08T17:13:51.023Z,97514.66
2022-11-08T17:16:17.653Z,97505.03
2022-11-08T17:18:47.440Z,97513.38
2022-11-08T17:21:43.021Z,97502.81
2022-11-08T17:24:03.241Z,97507.28
2022-11-08T17:26:29.940Z,97508.47
2022-11-08T17:28:56.588Z,97508.38
2022-11-08T17:31:23.208Z,97507.13
2022-11-08T17:33:49.901Z,97509.16
2022-11-08T17:36:16.626Z,97513.00
2022-11-08T17:38:43.321Z,97512.41
2022-11-08T17:41:09.953Z,97511.00
2022-11-08T17:43:36.696Z,97515.63
2022-11-08T17:46:03.339Z,97514.38
2022-11-08T17:48:30.048Z,97513.63
2022-11-08T17:50:56.761Z,97518.28
2022-11-08T17:53:23.416Z,97511.13
2022-11-08T17:55:50.053Z,97512.81
2022-11-08T17:58:16.728Z,97511.31
2022-11-08T18:00:43.500Z,97510.44
2022-11-08T18:03:12.531Z,97510.81
2022-11-08T18:05:39.380Z,97512.44
2022-11-08T18:08:06.066Z,97508.75
2022-11-08T18:10:32.865Z,97512.59
2022-11-08T18:12:59.497Z,97508.63
2022-11-08T18:15:26.167Z,97518.16
2022-11-08T18:17:52.880Z,97508.16
2022-11-08T18:20:19.529Z,97500.78
2022-11-08T18:22:46.257Z,97513.00
2022-11-08T18:25:12.941Z,97508.94
2022-11-08T18:27:39.568Z,97512.50
2022-11-08T18:30:06.215Z,97513.38
2022-11-08T18:32:32.860Z,97512.38
2022-11-08T18:34:59.499Z,97510.53
2022-11-08T18:37:26.141Z,97515.63
2022-11-08T18:39:52.777Z,97519.00
2022-11-08T18:42:19.457Z,97519.25
2022-11-08T18:44:46.112Z,97516.41
2022-11-08T18:47:12.760Z,97507.50
2022-11-08T18:49:39.413Z,97522.00
2022-11-08T18:52:06.055Z,97520.75
2022-11-08T18:54:32.754Z,97512.88
2022-11-08T18:56:59.476Z,97518.59
2022-11-08T18:59:26.151Z,97515.97
2022-11-08T19:01:52.961Z,97513.25
2022-11-08T19:04:19.763Z,97506.66
2022-11-08T19:06:51.526Z,97511.31
2022-11-08T19:09:20.900Z,97512.06
2022-11-08T19:11:47.861Z,97511.94
2022-11-08T19:14:14.553Z,97502.56
2022-11-08T19:16:41.264Z,97509.78
2022-11-08T19:19:07.910Z,97508.66
2022-11-08T19:21:35.013Z,97509.03
2022-11-08T19:24:01.662Z,97510.22
2022-11-08T19:26:28.363Z,97509.75
2022-11-08T19:28:55.079Z,97508.06
2022-11-08T19:31:21.733Z,97518.69
2022-11-08T19:33:48.397Z,97523.66
2022-11-08T19:36:15.055Z,97527.63
2022-11-08T19:38:41.766Z,97517.38
2022-11-08T19:41:08.440Z,97510.69
2022-11-08T19:43:35.074Z,97513.25
2022-11-08T19:46:01.741Z,97512.50
2022-11-08T19:48:28.397Z,97513.50
2022-11-08T19:50:55.051Z,97514.31
2022-11-08T19:53:21.732Z,97520.94
2022-11-08T19:55:48.399Z,97526.66
2022-11-08T19:58:15.260Z,97521.31
2022-11-08T20:00:42.007Z,97518.75
2022-11-08T20:03:08.672Z,97518.84
2022-11-08T20:05:35.323Z,97520.66
2022-11-08T20:08:02.007Z,97518.84
2022-11-08T20:10:28.635Z,97523.72
2022-11-08T20:12:55.335Z,97516.84
2022-11-08T20:15:22.029Z,97525.00
2022-11-08T20:17:48.716Z,97521.03
2022-11-08T20:20:15.422Z,97512.94
2022-11-08T20:22:45.573Z,97520.22
2022-11-08T20:25:16.916Z,97518.41
2022-11-08T20:27:43.541Z,97518.41
2022-11-08T20:30:10.346Z,97519.28
2022-11-08T20:32:37.029Z,97522.63
2022-11-08T20:35:04.334Z,97515.03
2022-11-08T20:37:31.180Z,97525.28
2022-11-08T20:39:57.850Z,97523.69
2022-11-08T20:42:24.497Z,97523.38
2022-11-08T20:44:51.200Z,97532.88
2022-11-08T20:47:19.114Z,97531.44
2022-11-08T20:49:45.880Z,97522.88
2022-11-08T20:52:12.546Z,97523.56
2022-11-08T20:54:43.781Z,97523.19
2022-11-08T20:57:10.661Z,97518.03
2022-11-08T20:59:37.399Z,97524.63
2022-11-08T21:02:04.121Z,97525.34
2022-11-08T21:04:30.759Z,97527.00
2022-11-08T21:07:59.244Z,97529.63
2022-11-08T21:09:50.523Z,97524.75
2022-11-08T21:12:18.515Z,97514.84
2022-11-08T21:14:45.177Z,97517.38
2022-11-08T21:17:27.169Z,97517.31
2022-11-08T21:19:53.807Z,97516.03
2022-11-08T21:22:20.491Z,97520.81
2022-11-08T21:27:31.395Z,97515.22
2022-11-08T21:29:58.087Z,97521.09
2022-11-08T21:32:24.746Z,97514.03
2022-11-08T21:34:51.388Z,97520.47
2022-11-08T21:37:18.029Z,97516.03
2022-11-08T21:39:44.747Z,97519.19
2022-11-08T21:42:11.411Z,97520.81
2022-11-08T21:44:38.083Z,97517.47
2022-11-08T21:47:04.748Z,97518.47
2022-11-08T21:49:31.402Z,97518.19
2022-11-08T21:51:58.068Z,97517.38
2022-11-08T21:54:24.691Z,97518.72
2022-11-08T21:56:51.359Z,97518.47
2022-11-08T21:59:18.010Z,97518.63
2022-11-08T22:01:44.642Z,97515.53
2022-11-08T22:04:11.271Z,97512.03
2022-11-08T22:06:37.970Z,97513.38
2022-11-08T22:09:04.682Z,97507.03
2022-11-08T22:11:31.298Z,97508.03
2022-11-08T22:13:58.050Z,97504.41
2022-11-08T22:16:24.795Z,97502.34
2022-11-08T22:19:04.790Z,97502.69
2022-11-08T22:21:32.085Z,97506.69
2022-11-08T22:23:58.823Z,97500.00
2022-11-08T22:26:25.503Z,97504.31
2022-11-08T22:28:52.107Z,97504.97
2022-11-08T22:31:18.786Z,97497.00
2022-11-08T22:33:45.426Z,97495.34
2022-11-08T22:36:12.115Z,97497.44
2022-11-08T22:38:38.867Z,97498.03
2022-11-08T22:41:05.504Z,97490.53
2022-11-08T22:43:32.185Z,97496.72
2022-11-08T22:45:58.844Z,97500.69
2022-11-08T22:48:25.514Z,97508.03
2022-11-08T22:50:52.221Z,97505.25
2022-11-08T22:53:19.144Z,97503.78
2022-11-08T22:55:46.092Z,97501.06
2022-11-08T22:58:12.756Z,97498.78
2022-11-08T23:00:39.411Z,97499.69
2022-11-08T23:03:06.056Z,97495.03
2022-11-08T23:05:32.668Z,97490.88
2022-11-08T23:07:59.338Z,97495.63
2022-11-08T23:10:25.938Z,97491.09
2022-11-08T23:12:52.570Z,97486.91
2022-11-08T23:15:19.216Z,97485.44
2022-11-08T23:17:45.883Z,97489.84
2022-11-08T23:20:12.563Z,97490.00
2022-11-08T23:22:39.209Z,97482.31
2022-11-08T23:25:05.908Z,97479.63
2022-11-08T23:27:32.702Z,97480.44
2022-11-08T23:29:59.389Z,97480.94
2022-11-08T23:32:26.074Z,97481.84
2022-11-08T23:34:53.970Z,97475.22
2022-11-08T23:37:20.650Z,97472.31
2022-11-08T23:39:47.365Z,97479.91
2022-11-08T23:42:14.091Z,97477.81
2022-11-08T23:44:40.906Z,97477.31
2022-11-08T23:47:07.624Z,97471.06
2022-11-08T23:49:34.300Z,97469.63
2022-11-08T23:52:01.004Z,97469.38
2022-11-08T23:54:27.699Z,97464.66
2022-11-08T23:56:54.410Z,97468.22
2022-11-08T23:59:21.166Z,97472.66
